sensor_id;sensor_type;location;lat;lon;timestamp;pressure;altitude;pressure_sealevel;temperature;humidity
8294;BME280;4185;41.506;24.938;2023-02-28T00:00:09;93939.59;;;8.23;88.11
8294;BME280;4185;41.506;24.938;2023-02-28T00:02:37;93958.22;;;8.30;89.63
8294;BME280;4185;41.506;24.938;2023-02-28T00:05:05;93957.94;;;8.28;89.08
8294;BME280;4185;41.506;24.938;2023-02-28T00:07:33;93954.63;;;8.24;90.03
8294;BME280;4185;41.506;24.938;2023-02-28T00:10:00;93957.94;;;8.19;90.08
8294;BME280;4185;41.506;24.938;2023-02-28T00:12:27;93962.66;;;8.09;90.29
8294;BME280;4185;41.506;24.938;2023-02-28T00:14:55;93969.41;;;8.14;90.17
8294;BME280;4185;41.506;24.938;2023-02-28T00:17:22;93975.59;;;8.05;90.62
8294;BME280;4185;41.506;24.938;2023-02-28T00:19:49;93973.66;;;7.97;91.82
8294;BME280;4185;41.506;24.938;2023-02-28T00:22:18;93976.97;;;8.01;91.90
8294;BME280;4185;41.506;24.938;2023-02-28T00:24:45;93987.00;;;8.09;91.40
8294;BME280;4185;41.506;24.938;2023-02-28T00:27:13;93977.66;;;8.10;91.11
8294;BME280;4185;41.506;24.938;2023-02-28T00:29:40;93976.88;;;8.19;91.26
8294;BME280;4185;41.506;24.938;2023-02-28T00:32:08;93989.34;;;8.25;91.16
8294;BME280;4185;41.506;24.938;2023-02-28T00:34:35;93984.38;;;8.33;91.62
8294;BME280;4185;41.506;24.938;2023-02-28T00:37:03;93985.84;;;8.34;90.82
8294;BME280;4185;41.506;24.938;2023-02-28T00:39:31;93982.13;;;8.31;90.75
8294;BME280;4185;41.506;24.938;2023-02-28T00:41:57;93990.41;;;8.28;91.58
8294;BME280;4185;41.506;24.938;2023-02-28T00:44:24;93990.13;;;8.17;91.28
8294;BME280;4185;41.506;24.938;2023-02-28T00:46:51;93992.53;;;8.24;91.90
8294;BME280;4185;41.506;24.938;2023-02-28T00:49:20;94007.88;;;8.27;91.73
8294;BME280;4185;41.506;24.938;2023-02-28T00:51:48;93996.41;;;8.23;92.02
8294;BME280;4185;41.506;24.938;2023-02-28T00:54:15;93996.16;;;8.12;92.09
8294;BME280;4185;41.506;24.938;2023-02-28T00:56:42;94001.75;;;8.08;92.57
8294;BME280;4185;41.506;24.938;2023-02-28T00:59:09;94004.88;;;8.07;93.02
8294;BME280;4185;41.506;24.938;2023-02-28T01:01:36;93999.78;;;8.09;93.66
8294;BME280;4185;41.506;24.938;2023-02-28T01:04:03;93999.63;;;8.12;93.83
8294;BME280;4185;41.506;24.938;2023-02-28T01:06:31;94000.22;;;8.16;93.68
8294;BME280;4185;41.506;24.938;2023-02-28T01:08:58;94001.22;;;8.19;93.30
8294;BME280;4185;41.506;24.938;2023-02-28T01:11:25;94004.25;;;8.21;92.44
8294;BME280;4185;41.506;24.938;2023-02-28T01:13:52;94000.22;;;8.16;92.41
8294;BME280;4185;41.506;24.938;2023-02-28T01:16:19;93999.44;;;8.16;92.71
8294;BME280;4185;41.506;24.938;2023-02-28T01:18:46;93989.84;;;8.15;92.99
8294;BME280;4185;41.506;24.938;2023-02-28T01:21:15;94005.03;;;8.12;93.46
8294;BME280;4185;41.506;24.938;2023-02-28T01:23:43;94013.44;;;8.14;93.03
8294;BME280;4185;41.506;24.938;2023-02-28T01:26:12;94014.31;;;8.20;93.15
8294;BME280;4185;41.506;24.938;2023-02-28T01:28:39;94008.13;;;8.29;92.14
8294;BME280;4185;41.506;24.938;2023-02-28T01:31:07;94003.78;;;8.31;92.55
8294;BME280;4185;41.506;24.938;2023-02-28T01:33:35;94002.25;;;8.30;92.34
8294;BME280;4185;41.506;24.938;2023-02-28T01:36:04;94013.09;;;8.30;91.91
8294;BME280;4185;41.506;24.938;2023-02-28T01:38:32;94017.19;;;8.26;92.59
8294;BME280;4185;41.506;24.938;2023-02-28T01:41:00;94009.19;;;8.22;92.82
8294;BME280;4185;41.506;24.938;2023-02-28T01:43:29;94006.66;;;8.19;92.93
8294;BME280;4185;41.506;24.938;2023-02-28T01:45:57;94001.41;;;8.15;93.49
8294;BME280;4185;41.506;24.938;2023-02-28T01:48:26;94001.22;;;8.19;93.38
8294;BME280;4185;41.506;24.938;2023-02-28T01:50:55;93996.59;;;8.19;93.35
8294;BME280;4185;41.506;24.938;2023-02-28T01:53:29;93995.81;;;8.19;93.45
8294;BME280;4185;41.506;24.938;2023-02-28T01:55:59;94005.91;;;8.18;93.56
8294;BME280;4185;41.506;24.938;2023-02-28T01:58:26;94008.22;;;8.02;92.99
8294;BME280;4185;41.506;24.938;2023-02-28T02:00:53;94006.13;;;7.97;93.78
8294;BME280;4185;41.506;24.938;2023-02-28T02:03:20;94005.06;;;8.03;93.71
8294;BME280;4185;41.506;24.938;2023-02-28T02:05:47;94022.03;;;8.04;93.34
8294;BME280;4185;41.506;24.938;2023-02-28T02:08:17;94017.84;;;8.03;93.56
8294;BME280;4185;41.506;24.938;2023-02-28T02:10:46;94023.72;;;8.01;93.93
8294;BME280;4185;41.506;24.938;2023-02-28T02:13:47;94025.50;;;8.04;93.68
8294;BME280;4185;41.506;24.938;2023-02-28T02:16:30;94026.72;;;8.03;93.48
8294;BME280;4185;41.506;24.938;2023-02-28T02:19:10;94031.69;;;7.96;93.32
8294;BME280;4185;41.506;24.938;2023-02-28T02:24:47;94044.78;;;7.88;93.93
8294;BME280;4185;41.506;24.938;2023-02-28T02:27:33;94046.44;;;7.86;94.21
8294;BME280;4185;41.506;24.938;2023-02-28T02:30:47;94055.16;;;7.90;94.58
8294;BME280;4185;41.506;24.938;2023-02-28T02:33:48;94047.63;;;7.85;94.18
8294;BME280;4185;41.506;24.938;2023-02-28T02:36:23;94032.00;;;7.89;94.02
8294;BME280;4185;41.506;24.938;2023-02-28T02:39:00;94022.25;;;7.82;93.81
8294;BME280;4185;41.506;24.938;2023-02-28T02:41:35;94033.94;;;7.88;94.21
8294;BME280;4185;41.506;24.938;2023-02-28T02:44:10;94036.38;;;7.86;94.24
8294;BME280;4185;41.506;24.938;2023-02-28T02:46:41;94041.63;;;7.90;94.59
8294;BME280;4185;41.506;24.938;2023-02-28T02:49:12;94037.72;;;7.91;94.42
8294;BME280;4185;41.506;24.938;2023-02-28T02:51:42;94040.56;;;7.96;94.30
8294;BME280;4185;41.506;24.938;2023-02-28T02:54:13;94040.25;;;7.94;93.33
8294;BME280;4185;41.506;24.938;2023-02-28T02:56:43;94034.41;;;7.87;94.35
8294;BME280;4185;41.506;24.938;2023-02-28T02:59:13;94031.41;;;7.85;94.65
8294;BME280;4185;41.506;24.938;2023-02-28T03:01:49;94031.41;;;7.85;94.78
8294;BME280;4185;41.506;24.938;2023-02-28T03:04:19;94033.69;;;7.86;95.03
8294;BME280;4185;41.506;24.938;2023-02-28T03:06:50;94026.59;;;7.89;94.65
8294;BME280;4185;41.506;24.938;2023-02-28T03:09:20;94032.00;;;7.89;94.00
8294;BME280;4185;41.506;24.938;2023-02-28T03:11:47;94034.16;;;7.76;93.62
8294;BME280;4185;41.506;24.938;2023-02-28T03:14:36;94032.97;;;7.68;94.49
8294;BME280;4185;41.506;24.938;2023-02-28T03:17:20;94041.34;;;7.70;94.52
8294;BME280;4185;41.506;24.938;2023-02-28T03:19:55;94040.16;;;7.71;94.58
8294;BME280;4185;41.506;24.938;2023-02-28T03:22:41;94042.25;;;7.67;94.20
8294;BME280;4185;41.506;24.938;2023-02-28T03:25:18;94041.69;;;7.63;93.57
8294;BME280;4185;41.506;24.938;2023-02-28T03:27:55;94042.56;;;7.60;94.61
8294;BME280;4185;41.506;24.938;2023-02-28T03:30:31;94051.59;;;7.66;94.41
8294;BME280;4185;41.506;24.938;2023-02-28T03:33:05;94047.53;;;7.70;94.13
8294;BME280;4185;41.506;24.938;2023-02-28T03:35:36;94053.09;;;7.67;94.56
8294;BME280;4185;41.506;24.938;2023-02-28T03:38:10;94056.13;;;7.51;94.38
8294;BME280;4185;41.506;24.938;2023-02-28T03:40:43;94064.50;;;7.53;95.34
8294;BME280;4185;41.506;24.938;2023-02-28T03:43:16;94065.41;;;7.50;95.46
8294;BME280;4185;41.506;24.938;2023-02-28T03:45:44;94063.00;;;7.52;95.98
8294;BME280;4185;41.506;24.938;2023-02-28T03:48:15;94073.22;;;7.47;95.59
8294;BME280;4185;41.506;24.938;2023-02-28T03:50:46;94070.69;;;7.44;95.62
8294;BME280;4185;41.506;24.938;2023-02-28T03:53:19;94067.22;;;7.43;96.03
8294;BME280;4185;41.506;24.938;2023-02-28T03:55:51;94071.13;;;7.42;95.91
8294;BME280;4185;41.506;24.938;2023-02-28T03:58:24;94074.88;;;7.45;96.87
8294;BME280;4185;41.506;24.938;2023-02-28T04:00:59;94070.25;;;7.46;96.74
8294;BME280;4185;41.506;24.938;2023-02-28T04:03:32;94063.31;;;7.54;96.37
8294;BME280;4185;41.506;24.938;2023-02-28T04:05:59;94057.91;;;7.63;95.80
8294;BME280;4185;41.506;24.938;2023-02-28T04:08:28;94071.44;;;7.63;95.57
8294;BME280;4185;41.506;24.938;2023-02-28T04:10:58;94083.44;;;7.62;95.95
8294;BME280;4185;41.506;24.938;2023-02-28T04:13:29;94084.34;;;7.59;95.92
8294;BME280;4185;41.506;24.938;2023-02-28T04:15:56;94083.13;;;7.60;96.05
8294;BME280;4185;41.506;24.938;2023-02-28T04:18:23;94078.03;;;7.53;95.97
8294;BME280;4185;41.506;24.938;2023-02-28T04:20:50;94084.94;;;7.44;96.26
8294;BME280;4185;41.506;24.938;2023-02-28T04:23:16;94084.81;;;7.39;97.26
8294;BME280;4185;41.506;24.938;2023-02-28T04:25:44;94082.84;;;7.39;97.75
8294;BME280;4185;41.506;24.938;2023-02-28T04:28:11;94083.13;;;7.41;98.23
8294;BME280;4185;41.506;24.938;2023-02-28T04:30:38;94090.34;;;7.44;97.54
8294;BME280;4185;41.506;24.938;2023-02-28T04:33:05;94090.66;;;7.47;97.34
8294;BME280;4185;41.506;24.938;2023-02-28T04:35:32;94089.44;;;7.47;97.10
8294;BME280;4185;41.506;24.938;2023-02-28T04:37:59;94090.34;;;7.44;97.51
8294;BME280;4185;41.506;24.938;2023-02-28T04:40:26;94083.44;;;7.43;97.78
8294;BME280;4185;41.506;24.938;2023-02-28T04:42:54;94094.56;;;7.36;97.44
8294;BME280;4185;41.506;24.938;2023-02-28T04:45:21;94087.50;;;7.39;97.87
8294;BME280;4185;41.506;24.938;2023-02-28T04:47:47;94087.19;;;7.46;97.36
8294;BME280;4185;41.506;24.938;2023-02-28T04:50:14;94087.34;;;7.52;97.38
8294;BME280;4185;41.506;24.938;2023-02-28T04:52:41;94084.22;;;7.44;97.28
8294;BME280;4185;41.506;24.938;2023-02-28T04:55:08;94087.34;;;7.42;97.44
8294;BME280;4185;41.506;24.938;2023-02-28T04:57:35;94082.25;;;7.35;98.05
8294;BME280;4185;41.506;24.938;2023-02-28T05:00:04;94092.16;;;7.38;98.41
8294;BME280;4185;41.506;24.938;2023-02-28T05:02:36;94079.09;;;7.37;98.01
8294;BME280;4185;41.506;24.938;2023-02-28T05:05:04;94088.69;;;7.38;98.24
8294;BME280;4185;41.506;24.938;2023-02-28T05:07:31;94097.88;;;7.40;98.61
8294;BME280;4185;41.506;24.938;2023-02-28T05:09:58;94089.75;;;7.40;98.15
8294;BME280;4185;41.506;24.938;2023-02-28T05:12:25;94090.03;;;7.42;98.29
8294;BME280;4185;41.506;24.938;2023-02-28T05:14:52;94084.94;;;7.44;97.16
8294;BME280;4185;41.506;24.938;2023-02-28T05:17:20;94091.84;;;7.46;97.72
8294;BME280;4185;41.506;24.938;2023-02-28T05:19:46;94090.66;;;7.47;97.34
8294;BME280;4185;41.506;24.938;2023-02-28T05:22:14;94096.81;;;7.47;97.49
8294;BME280;4185;41.506;24.938;2023-02-28T05:24:42;94109.41;;;7.50;97.66
8294;BME280;4185;41.506;24.938;2023-02-28T05:27:09;94098.91;;;7.43;97.02
8294;BME280;4185;41.506;24.938;2023-02-28T05:29:37;94097.25;;;7.46;97.85
8294;BME280;4185;41.506;24.938;2023-02-28T05:32:11;94107.03;;;7.52;97.93
8294;BME280;4185;41.506;24.938;2023-02-28T05:34:40;94115.44;;;7.54;97.66
8294;BME280;4185;41.506;24.938;2023-02-28T05:37:11;94109.28;;;7.54;97.62
8294;BME280;4185;41.506;24.938;2023-02-28T05:39:39;94123.38;;;7.49;97.70
8294;BME280;4185;41.506;24.938;2023-02-28T05:42:06;94118.13;;;7.45;98.09
8294;BME280;4185;41.506;24.938;2023-02-28T05:44:33;94123.69;;;7.51;97.83
8294;BME280;4185;41.506;24.938;2023-02-28T05:47:00;94125.78;;;7.47;97.90
8294;BME280;4185;41.506;24.938;2023-02-28T05:49:27;94120.69;;;7.49;98.10
8294;BME280;4185;41.506;24.938;2023-02-28T05:51:55;94119.19;;;7.57;98.56
8294;BME280;4185;41.506;24.938;2023-02-28T05:54:22;94114.22;;;7.64;98.16
8294;BME280;4185;41.506;24.938;2023-02-28T05:56:49;94121.28;;;7.71;97.51
8294;BME280;4185;41.506;24.938;2023-02-28T05:59:16;94123.53;;;7.81;97.28
8294;BME280;4185;41.506;24.938;2023-02-28T06:01:44;94133.00;;;7.86;96.80
8294;BME280;4185;41.506;24.938;2023-02-28T06:04:14;94131.78;;;7.87;96.28
8294;BME280;4185;41.506;24.938;2023-02-28T06:06:43;94130.13;;;7.89;96.94
8294;BME280;4185;41.506;24.938;2023-02-28T06:09:11;94138.69;;;7.88;96.46
8294;BME280;4185;41.506;24.938;2023-02-28T06:11:38;94134.50;;;7.78;96.99
8294;BME280;4185;41.506;24.938;2023-02-28T06:14:05;94134.47;;;7.87;97.30
8294;BME280;4185;41.506;24.938;2023-02-28T06:16:34;94130.72;;;7.93;97.39
8294;BME280;4185;41.506;24.938;2023-02-28T06:19:02;94133.56;;;7.99;97.18
8294;BME280;4185;41.506;24.938;2023-02-28T06:21:30;94142.91;;;7.98;95.89
8294;BME280;4185;41.506;24.938;2023-02-28T06:23:57;94145.91;;;7.91;96.28
8294;BME280;4185;41.506;24.938;2023-02-28T06:26:28;94153.41;;;7.96;97.23
8294;BME280;4185;41.506;24.938;2023-02-28T06:28:55;94152.19;;;7.97;97.28
8294;BME280;4185;41.506;24.938;2023-02-28T06:31:22;94149.03;;;7.98;97.27
8294;BME280;4185;41.506;24.938;2023-02-28T06:33:57;94153.41;;;8.05;97.38
8294;BME280;4185;41.506;24.938;2023-02-28T06:36:24;94149.19;;;8.13;97.17
8294;BME280;4185;41.506;24.938;2023-02-28T06:38:51;94156.69;;;8.18;96.93
8294;BME280;4185;41.506;24.938;2023-02-28T06:41:21;94160.00;;;8.13;96.67
8294;BME280;4185;41.506;24.938;2023-02-28T06:43:51;94154.44;;;8.16;97.43
8294;BME280;4185;41.506;24.938;2023-02-28T06:46:17;94152.19;;;8.24;97.58
8294;BME280;4185;41.506;24.938;2023-02-28T06:48:45;94147.97;;;8.32;97.62
8294;BME280;4185;41.506;24.938;2023-02-28T06:51:14;94130.22;;;8.31;97.56
8294;BME280;4185;41.506;24.938;2023-02-28T06:53:41;94135.31;;;8.38;97.38
8294;BME280;4185;41.506;24.938;2023-02-28T06:56:10;94146.44;;;8.40;97.17
8294;BME280;4185;41.506;24.938;2023-02-28T06:58:37;94145.84;;;8.36;96.69
8294;BME280;4185;41.506;24.938;2023-02-28T07:01:07;94145.13;;;8.35;97.61
8294;BME280;4185;41.506;24.938;2023-02-28T07:03:35;94146.91;;;8.38;97.91
8294;BME280;4185;41.506;24.938;2023-02-28T07:06:04;94152.44;;;8.44;97.53
8294;BME280;4185;41.506;24.938;2023-02-28T07:08:31;94150.03;;;8.46;98.07
8294;BME280;4185;41.506;24.938;2023-02-28T07:10:58;94157.38;;;8.54;97.55
8294;BME280;4185;41.506;24.938;2023-02-28T07:13:25;94148.47;;;8.63;96.66
8294;BME280;4185;41.506;24.938;2023-02-28T07:15:56;94153.72;;;8.67;96.56
8294;BME280;4185;41.506;24.938;2023-02-28T07:18:25;94154.50;;;8.67;96.77
8294;BME280;4185;41.506;24.938;2023-02-28T07:20:52;94152.97;;;8.66;97.19
8294;BME280;4185;41.506;24.938;2023-02-28T07:23:19;94149.84;;;8.68;97.00
8294;BME280;4185;41.506;24.938;2023-02-28T07:25:46;94147.56;;;8.66;97.72
8294;BME280;4185;41.506;24.938;2023-02-28T07:28:13;94140.31;;;8.72;98.69
8294;BME280;4185;41.506;24.938;2023-02-28T07:30:40;94137.56;;;8.81;98.09
8294;BME280;4185;41.506;24.938;2023-02-28T07:33:07;94143.25;;;8.92;98.02
8294;BME280;4185;41.506;24.938;2023-02-28T07:35:36;94142.91;;;8.99;96.78
8294;BME280;4185;41.506;24.938;2023-02-28T07:38:03;94144.81;;;9.08;96.86
8294;BME280;4185;41.506;24.938;2023-02-28T07:40:30;94144.50;;;9.15;95.81
8294;BME280;4185;41.506;24.938;2023-02-28T07:42:58;94147.38;;;9.11;96.11
8294;BME280;4185;41.506;24.938;2023-02-28T07:45:30;94151.28;;;9.10;96.92
8294;BME280;4185;41.506;24.938;2023-02-28T07:47:59;94136.19;;;9.18;96.68
8294;BME280;4185;41.506;24.938;2023-02-28T07:50:26;94136.00;;;9.22;96.93
8294;BME280;4185;41.506;24.938;2023-02-28T07:52:57;94140.06;;;9.26;96.39
8294;BME280;4185;41.506;24.938;2023-02-28T07:55:24;94144.72;;;9.26;96.88
8294;BME280;4185;41.506;24.938;2023-02-28T07:57:51;94144.88;;;9.22;96.85
8294;BME280;4185;41.506;24.938;2023-02-28T08:00:18;94148.91;;;9.27;96.50
8294;BME280;4185;41.506;24.938;2023-02-28T08:02:45;94149.22;;;9.29;96.15
8294;BME280;4185;41.506;24.938;2023-02-28T08:05:12;94151.63;;;9.27;96.04
8294;BME280;4185;41.506;24.938;2023-02-28T08:07:38;94147.72;;;9.28;95.47
8294;BME280;4185;41.506;24.938;2023-02-28T08:10:08;94163.81;;;9.31;95.51
8294;BME280;4185;41.506;24.938;2023-02-28T08:12:35;94159.59;;;9.30;96.18
8294;BME280;4185;41.506;24.938;2023-02-28T08:15:02;94152.03;;;9.34;96.32
8294;BME280;4185;41.506;24.938;2023-02-28T08:17:29;94143.44;;;9.36;96.54
8294;BME280;4185;41.506;24.938;2023-02-28T08:20:00;94158.69;;;9.33;96.00
8294;BME280;4185;41.506;24.938;2023-02-28T08:22:29;94160.81;;;9.29;96.12
8294;BME280;4185;41.506;24.938;2023-02-28T08:24:56;94158.94;;;9.35;97.00
8294;BME280;4185;41.506;24.938;2023-02-28T08:27:24;94165.72;;;9.40;96.71
8294;BME280;4185;41.506;24.938;2023-02-28T08:29:51;94156.94;;;9.45;97.04
8294;BME280;4185;41.506;24.938;2023-02-28T08:32:18;94155.22;;;9.56;96.60
8294;BME280;4185;41.506;24.938;2023-02-28T08:34:44;94161.72;;;9.73;96.07
8294;BME280;4185;41.506;24.938;2023-02-28T08:37:11;94159.69;;;9.83;95.81
8294;BME280;4185;41.506;24.938;2023-02-28T08:39:38;94151.47;;;9.92;95.40
8294;BME280;4185;41.506;24.938;2023-02-28T08:42:05;94146.72;;;10.02;94.13
8294;BME280;4185;41.506;24.938;2023-02-28T08:44:33;94151.91;;;10.14;95.04
8294;BME280;4185;41.506;24.938;2023-02-28T08:47:00;94152.09;;;10.25;93.98
8294;BME280;4185;41.506;24.938;2023-02-28T08:49:27;94147.72;;;10.28;93.64
8294;BME280;4185;41.506;24.938;2023-02-28T08:51:54;94153.13;;;10.28;93.14
8294;BME280;4185;41.506;24.938;2023-02-28T08:54:22;94155.47;;;10.20;93.60
8294;BME280;4185;41.506;24.938;2023-02-28T08:56:49;94144.59;;;10.20;93.22
8294;BME280;4185;41.506;24.938;2023-02-28T08:59:16;94154.34;;;10.27;93.43
8294;BME280;4185;41.506;24.938;2023-02-28T09:01:44;94146.59;;;10.20;93.34
8294;BME280;4185;41.506;24.938;2023-02-28T09:04:11;94147.25;;;10.15;92.06
8294;BME280;4185;41.506;24.938;2023-02-28T09:06:38;94153.59;;;10.12;92.35
8294;BME280;4185;41.506;24.938;2023-02-28T09:09:05;94151.16;;;10.14;92.41
8294;BME280;4185;41.506;24.938;2023-02-28T09:11:33;94152.75;;;10.20;92.44
8294;BME280;4185;41.506;24.938;2023-02-28T09:14:00;94155.56;;;10.26;92.46
8294;BME280;4185;41.506;24.938;2023-02-28T09:16:29;94149.19;;;10.29;92.39
8294;BME280;4185;41.506;24.938;2023-02-28T09:18:57;94145.53;;;10.32;92.81
8294;BME280;4185;41.506;24.938;2023-02-28T09:21:24;94148.06;;;10.35;92.42
8294;BME280;4185;41.506;24.938;2023-02-28T09:23:50;94149.13;;;10.38;92.69
8294;BME280;4185;41.506;24.938;2023-02-28T09:26:19;94151.66;;;10.41;93.21
8294;BME280;4185;41.506;24.938;2023-02-28T09:28:48;94145.56;;;10.46;93.13
8294;BME280;4185;41.506;24.938;2023-02-28T09:31:17;94139.94;;;10.50;93.70
8294;BME280;4185;41.506;24.938;2023-02-28T09:33:46;94131.50;;;10.48;93.91
8294;BME280;4185;41.506;24.938;2023-02-28T09:36:14;94127.84;;;10.51;94.12
8294;BME280;4185;41.506;24.938;2023-02-28T09:38:41;94140.22;;;10.52;94.52
8294;BME280;4185;41.506;24.938;2023-02-28T09:41:13;94137.28;;;10.55;94.01
8294;BME280;4185;41.506;24.938;2023-02-28T09:43:44;94138.81;;;10.56;95.47
8294;BME280;4185;41.506;24.938;2023-02-28T09:46:20;94136.19;;;10.62;94.56
8294;BME280;4185;41.506;24.938;2023-02-28T09:48:51;94134.59;;;10.70;95.02
8294;BME280;4185;41.506;24.938;2023-02-28T09:51:40;94130.72;;;10.76;94.77
8294;BME280;4185;41.506;24.938;2023-02-28T09:54:13;94129.59;;;10.83;94.73
8294;BME280;4185;41.506;24.938;2023-02-28T09:56:45;94131.63;;;10.88;94.31
8294;BME280;4185;41.506;24.938;2023-02-28T09:59:22;94118.63;;;10.92;93.82
8294;BME280;4185;41.506;24.938;2023-02-28T10:01:57;94120.38;;;10.95;93.89
8294;BME280;4185;41.506;24.938;2023-02-28T10:04:39;94118.41;;;10.95;94.82
8294;BME280;4185;41.506;24.938;2023-02-28T10:07:19;94106.31;;;10.96;94.43
8294;BME280;4185;41.506;24.938;2023-02-28T10:09:53;94104.06;;;10.95;94.42
8294;BME280;4185;41.506;24.938;2023-02-28T10:12:22;94101.34;;;10.95;95.51
8294;BME280;4185;41.506;24.938;2023-02-28T10:14:51;94098.63;;;10.95;95.45
8294;BME280;4185;41.506;24.938;2023-02-28T10:17:21;94087.75;;;10.95;95.13
8294;BME280;4185;41.506;24.938;2023-02-28T10:19:58;94092.81;;;11.02;95.14
8294;BME280;4185;41.506;24.938;2023-02-28T10:22:30;94097.28;;;11.05;94.90
8294;BME280;4185;41.506;24.938;2023-02-28T10:25:18;94090.75;;;10.97;94.76
8294;BME280;4185;41.506;24.938;2023-02-28T10:27:45;94104.34;;;10.97;95.92
8294;BME280;4185;41.506;24.938;2023-02-28T10:30:13;94108.28;;;10.96;95.86
8294;BME280;4185;41.506;24.938;2023-02-28T10:32:46;94107.53;;;10.95;97.31
8294;BME280;4185;41.506;24.938;2023-02-28T10:35:17;94112.69;;;10.93;98.36
8294;BME280;4185;41.506;24.938;2023-02-28T10:37:47;94099.59;;;10.92;99.91
8294;BME280;4185;41.506;24.938;2023-02-28T10:40:29;94083.66;;;10.85;99.09
8294;BME280;4185;41.506;24.938;2023-02-28T10:42:57;94086.19;;;10.88;100.00
8294;BME280;4185;41.506;24.938;2023-02-28T10:45:25;94080.00;;;10.88;100.00
8294;BME280;4185;41.506;24.938;2023-02-28T10:47:55;94075.31;;;10.88;100.00
8294;BME280;4185;41.506;24.938;2023-02-28T10:50:35;94074.84;;;10.90;100.00
8294;BME280;4185;41.506;24.938;2023-02-28T10:53:28;94070.91;;;10.91;100.00
8294;BME280;4185;41.506;24.938;2023-02-28T10:55:58;94070.91;;;10.91;100.00
8294;BME280;4185;41.506;24.938;2023-02-28T10:58:31;94069.41;;;10.90;100.00
8294;BME280;4185;41.506;24.938;2023-02-28T11:00:59;94073.91;;;10.93;100.00
8294;BME280;4185;41.506;24.938;2023-02-28T11:03:31;94063.50;;;10.91;100.00
8294;BME280;4185;41.506;24.938;2023-02-28T11:05:58;94071.47;;;10.95;100.00
8294;BME280;4185;41.506;24.938;2023-02-28T11:08:27;94072.75;;;10.99;100.00
8294;BME280;4185;41.506;24.938;2023-02-28T11:10:55;94065.06;;;10.98;100.00
8294;BME280;4185;41.506;24.938;2023-02-28T11:13:26;94068.34;;;11.02;100.00
8294;BME280;4185;41.506;24.938;2023-02-28T11:15:56;94063.19;;;11.04;100.00
8294;BME280;4185;41.506;24.938;2023-02-28T11:18:27;94066.38;;;11.02;100.00
8294;BME280;4185;41.506;24.938;2023-02-28T11:20:57;94057.47;;;11.02;100.00
8294;BME280;4185;41.506;24.938;2023-02-28T11:23:29;94050.00;;;10.97;100.00
8294;BME280;4185;41.506;24.938;2023-02-28T11:25:59;94052.31;;;11.04;100.00
8294;BME280;4185;41.506;24.938;2023-02-28T11:28:29;94056.03;;;11.06;100.00
8294;BME280;4185;41.506;24.938;2023-02-28T11:31:03;94058.00;;;11.06;100.00
8294;BME280;4185;41.506;24.938;2023-02-28T11:33:31;94045.38;;;11.03;100.00
8294;BME280;4185;41.506;24.938;2023-02-28T11:36:02;94049.03;;;11.00;100.00
8294;BME280;4185;41.506;24.938;2023-02-28T11:38:32;94049.50;;;10.98;100.00
8294;BME280;4185;41.506;24.938;2023-02-28T11:44:02;94044.84;;;10.99;100.00
8294;BME280;4185;41.506;24.938;2023-02-28T11:46:35;94048.03;;;10.97;100.00
8294;BME280;4185;41.506;24.938;2023-02-28T11:49:20;94060.09;;;10.96;100.00
8294;BME280;4185;41.506;24.938;2023-02-28T11:51:54;94053.66;;;10.94;100.00
8294;BME280;4185;41.506;24.938;2023-02-28T11:54:35;94051.75;;;11.00;100.00
8294;BME280;4185;41.506;24.938;2023-02-28T11:57:16;94045.09;;;11.01;100.00
8294;BME280;4185;41.506;24.938;2023-02-28T11:59:53;94045.44;;;11.08;100.00
8294;BME280;4185;41.506;24.938;2023-02-28T12:02:28;94044.00;;;11.13;100.00
8294;BME280;4185;41.506;24.938;2023-02-28T12:05:12;94038.16;;;11.20;100.00
8294;BME280;4185;41.506;24.938;2023-02-28T12:07:49;94037.22;;;11.23;100.00
8294;BME280;4185;41.506;24.938;2023-02-28T12:10:23;94020.66;;;11.21;100.00
8294;BME280;4185;41.506;24.938;2023-02-28T12:13:01;94031.56;;;11.27;100.00
8294;BME280;4185;41.506;24.938;2023-02-28T12:15:44;94032.81;;;11.26;100.00
8294;BME280;4185;41.506;24.938;2023-02-28T12:18:26;94033.28;;;11.24;100.00
8294;BME280;4185;41.506;24.938;2023-02-28T12:21:03;94029.22;;;11.14;100.00
8294;BME280;4185;41.506;24.938;2023-02-28T12:23:47;94036.88;;;11.16;100.00
8294;BME280;4185;41.506;24.938;2023-02-28T12:26:19;94036.53;;;11.08;100.00
8294;BME280;4185;41.506;24.938;2023-02-28T12:28:54;94032.81;;;11.05;100.00
8294;BME280;4185;41.506;24.938;2023-02-28T12:31:27;94035.31;;;11.09;100.00
8294;BME280;4185;41.506;24.938;2023-02-28T12:34:01;94030.91;;;11.12;100.00
8294;BME280;4185;41.506;24.938;2023-02-28T12:36:29;94034.66;;;11.14;100.00
8294;BME280;4185;41.506;24.938;2023-02-28T12:39:00;94026.50;;;11.14;100.00
8294;BME280;4185;41.506;24.938;2023-02-28T12:41:36;94028.25;;;11.17;100.00
8294;BME280;4185;41.506;24.938;2023-02-28T12:44:09;94021.84;;;11.20;100.00
8294;BME280;4185;41.506;24.938;2023-02-28T12:46:42;94018.84;;;11.18;100.00
8294;BME280;4185;41.506;24.938;2023-02-28T12:49:13;94019.81;;;11.15;100.00
8294;BME280;4185;41.506;24.938;2023-02-28T12:51:44;94019.53;;;11.13;100.00
8294;BME280;4185;41.506;24.938;2023-02-28T12:54:18;94020.00;;;11.12;100.00
8294;BME280;4185;41.506;24.938;2023-02-28T12:56:55;94013.03;;;11.05;100.00
8294;BME280;4185;41.506;24.938;2023-02-28T12:59:27;94023.34;;;11.01;100.00
8294;BME280;4185;41.506;24.938;2023-02-28T13:02:33;94017.84;;;10.95;100.00
8294;BME280;4185;41.506;24.938;2023-02-28T13:05:07;94014.56;;;10.91;100.00
8294;BME280;4185;41.506;24.938;2023-02-28T13:07:55;94019.25;;;10.91;100.00
8294;BME280;4185;41.506;24.938;2023-02-28T13:10:38;94017.50;;;10.88;100.00
8294;BME280;4185;41.506;24.938;2023-02-28T13:13:14;94012.81;;;10.88;100.00
8294;BME280;4185;41.506;24.938;2023-02-28T13:15:57;94013.81;;;10.91;100.00
8294;BME280;4185;41.506;24.938;2023-02-28T13:18:30;94008.66;;;10.93;100.00
8294;BME280;4185;41.506;24.938;2023-02-28T13:20:59;94015.13;;;10.95;100.00
8294;BME280;4185;41.506;24.938;2023-02-28T13:26:22;94011.47;;;10.98;100.00
8294;BME280;4185;41.506;24.938;2023-02-28T13:29:24;94008.53;;;11.02;100.00
8294;BME280;4185;41.506;24.938;2023-02-28T13:35:14;94005.81;;;11.02;100.00
8294;BME280;4185;41.506;24.938;2023-02-28T13:37:42;94012.47;;;11.01;100.00
8294;BME280;4185;41.506;24.938;2023-02-28T13:40:30;94009.75;;;11.01;100.00
8294;BME280;4185;41.506;24.938;2023-02-28T13:43:02;94006.03;;;10.98;100.00
8294;BME280;4185;41.506;24.938;2023-02-28T13:45:30;94013.69;;;11.00;100.00